Time;durP1;ratioP1;P1;durP2;ratioP2;P2;SDS_P1;SDS_P2;PMS_P1;PMS_P2;Temp;Humidity;BMP_temperature;BMP_pressure;BME280_temperature;BME280_humidity;BME280_pressure;Samples;Min_cycle;Max_cycle;Signal;HPM_P1;HPM_P2
2022/05/03 06:16:07;;;;;;;6.47;5.87;;;;;;;12.77;81.99;99469.91;5287976;22;20813;-60
2022/05/03 06:21:55;;;;;;;9.07;5.90;;;;;;;12.78;81.89;99473.34;5083875;28;20210;-62
2022/05/03 06:24:22;;;;;;;6.47;5.73;;;;;;;12.72;81.94;99475.88;5111784;28;20206;-61
2022/05/03 06:26:49;;;;;;;7.37;6.57;;;;;;;12.74;82.41;99474.19;5112905;28;20204;-61
2022/05/03 06:29:16;;;;;;;7.83;6.13;;;;;;;12.79;83.42;99475.97;5112574;28;20691;-62
2022/05/03 06:31:44;;;;;;;6.73;5.47;;;;;;;12.68;82.86;99469.84;5112888;28;20197;-62
2022/05/03 06:34:11;;;;;;;8.37;6.80;;;;;;;12.74;83.06;99481.94;5112759;28;20206;-62
2022/05/03 06:36:38;;;;;;;8.90;7.10;;;;;;;12.81;85.94;99478.53;5112460;28;20228;-61
2022/05/03 06:39:06;;;;;;;6.83;5.70;;;;;;;12.80;84.96;99484.56;5094986;28;20288;-61
2022/05/03 06:41:33;;;;;;;6.53;5.90;;;;;;;12.74;84.81;99487.09;5091972;28;20609;-61
2022/05/03 06:44:00;;;;;;;7.47;6.50;;;;;;;12.74;84.81;99481.94;5083599;28;20198;-61
2022/05/03 06:46:28;;;;;;;7.43;6.27;;;;;;;12.70;84.39;99487.91;5091549;28;20195;-62
2022/05/03 06:48:56;;;;;;;7.70;6.90;;;;;;;12.68;86.08;99499.91;5091608;28;20918;-61
2022/05/03 06:51:23;;;;;;;7.00;6.40;;;;;;;12.73;87.23;99493.09;5102672;28;20901;-62
2022/05/03 06:53:50;;;;;;;8.00;6.80;;;;;;;12.74;87.52;99498.28;5112318;28;20194;-61
2022/05/03 06:56:17;;;;;;;8.07;6.50;;;;;;;12.77;87.26;99493.09;5112023;28;20202;-61
2022/05/03 06:58:46;;;;;;;9.27;6.67;;;;;;;12.77;86.39;99500.00;5112191;28;20199;-62
2022/05/03 07:01:14;;;;;;;11.13;6.93;;;;;;;12.70;87.20;99493.06;5111914;28;20202;-61
2022/05/03 07:03:42;;;;;;;7.93;7.23;;;;;;;12.72;87.83;99497.38;5111715;28;20281;-61
2022/05/03 07:06:10;;;;;;;10.17;7.10;;;;;;;12.83;87.57;99490.56;5111635;28;20205;-60
2022/05/03 07:08:38;;;;;;;8.53;7.47;;;;;;;12.89;87.25;99489.75;5107559;28;20198;-62
2022/05/03 07:11:06;;;;;;;8.50;7.30;;;;;;;12.95;87.06;99489.81;5089490;28;20432;-62
2022/05/03 07:13:32;;;;;;;7.57;6.43;;;;;;;13.11;86.63;99489.06;5091022;28;20209;-62
2022/05/03 07:16:00;;;;;;;6.97;6.00;;;;;;;12.94;85.11;99467.44;5089890;28;20222;-62
2022/05/03 07:23:57;;;;;;;7.93;6.00;;;;;;;12.91;84.32;99495.81;5087741;28;20198;-61
2022/05/03 07:26:24;;;;;;;7.57;6.77;;;;;;;12.86;84.76;99497.47;5090383;28;20573;-62
2022/05/03 07:28:50;;;;;;;8.00;7.20;;;;;;;12.88;85.35;99494.03;5090360;28;20708;-62
2022/05/03 07:31:17;;;;;;;8.37;6.97;;;;;;;12.87;86.05;99497.50;5087826;28;20205;-62
2022/05/03 07:33:44;;;;;;;9.33;7.60;;;;;;;12.97;86.58;99493.25;5090498;28;20194;-62
2022/05/03 07:36:12;;;;;;;7.20;6.50;;;;;;;13.10;85.82;99507.13;5090328;28;20187;-62
2022/05/03 07:38:40;;;;;;;7.07;6.37;;;;;;;13.06;85.09;99508.78;5087843;28;20197;-62
2022/05/03 07:41:08;;;;;;;8.07;7.37;;;;;;;12.99;86.61;99501.88;5090395;28;20222;-62
2022/05/03 07:43:35;;;;;;;7.10;6.50;;;;;;;13.03;86.41;99509.63;5090588;28;20212;-62
2022/05/03 07:46:02;;;;;;;7.13;6.43;;;;;;;12.99;85.81;99502.72;5090326;28;20252;-62
2022/05/03 07:48:29;;;;;;;7.50;6.80;;;;;;;13.02;86.59;99500.16;5090389;28;20195;-62
2022/05/03 07:50:56;;;;;;;6.60;5.43;;;;;;;12.96;84.98;99497.53;5090329;28;20692;-61
2022/05/03 07:53:24;;;;;;;6.90;5.73;;;;;;;12.99;84.99;99486.41;5090059;28;20726;-61
2022/05/03 07:55:51;;;;;;;6.37;5.77;;;;;;;12.98;84.97;99492.41;5090467;28;20191;-62
2022/05/03 07:58:20;;;;;;;7.43;6.53;;;;;;;12.98;85.36;99484.66;5090439;28;20194;-61
2022/05/03 08:00:48;;;;;;;6.63;5.93;;;;;;;12.99;86.00;99487.25;5090334;28;20226;-61
2022/05/03 08:03:15;;;;;;;6.30;5.73;;;;;;;13.03;86.04;99495.88;5090350;28;20223;-60
2022/05/03 08:05:41;;;;;;;7.40;6.70;;;;;;;13.05;85.54;99490.75;5090162;28;20649;-61
2022/05/03 08:08:08;;;;;;;6.47;5.87;;;;;;;13.06;84.85;99493.31;5090022;28;20199;-61
2022/05/03 08:10:37;;;;;;;6.23;5.63;;;;;;;13.11;84.75;99496.81;5090391;28;20240;-61
2022/05/03 08:13:04;;;;;;;7.67;5.80;;;;;;;13.17;84.29;99491.69;5090161;28;20194;-61
2022/05/03 08:15:31;;;;;;;8.40;6.30;;;;;;;13.28;83.40;99482.31;5089828;28;20198;-60
2022/05/03 08:17:57;;;;;;;8.40;7.07;;;;;;;13.36;85.04;99480.63;5090073;28;20695;-61
2022/05/03 08:20:24;;;;;;;6.40;5.80;;;;;;;13.38;83.75;99494.38;5090022;28;20219;-61
2022/05/03 08:22:51;;;;;;;6.25;5.65;;;;;;;13.28;82.13;99499.50;5089644;28;20436;-61
2022/05/03 08:25:19;;;;;;;8.80;5.70;;;;;;;13.28;82.81;99497.78;5090320;28;20190;-61
2022/05/03 08:27:47;;;;;;;5.73;5.13;;;;;;;13.30;79.68;99503.81;5094076;28;20245;-61
2022/05/03 08:30:14;;;;;;;6.47;5.97;;;;;;;13.33;81.43;99505.53;5094001;28;20191;-61
2022/05/03 08:32:40;;;;;;;6.07;5.13;;;;;;;13.23;81.11;99508.94;5094247;28;20229;-61
2022/05/03 08:35:07;;;;;;;6.57;5.57;;;;;;;13.27;81.54;99518.41;5092695;28;20443;-61
2022/05/03 08:43:06;;;;;;;5.30;4.77;;;;;;;13.13;79.61;99523.47;5092792;28;20612;-56
2022/05/03 08:45:34;;;;;;;8.17;4.67;;;;;;;13.06;80.69;99526.84;5072942;28;20215;-56
2022/05/03 08:48:02;;;;;;;6.37;5.70;;;;;;;13.05;81.00;99525.13;5073075;28;20211;-56
2022/05/03 08:50:31;;;;;;;4.87;4.43;;;;;;;12.92;80.68;99520.72;5073228;28;20199;-56
2022/05/03 08:53:00;;;;;;;6.30;5.70;;;;;;;13.02;80.90;99528.53;5073368;28;20204;-56
2022/05/03 08:55:28;;;;;;;5.37;4.87;;;;;;;13.07;80.80;99526.03;5073055;28;20645;-56
2022/05/03 08:57:55;;;;;;;8.57;5.43;;;;;;;13.01;80.51;99531.13;5072585;28;20634;-56
2022/05/03 09:00:24;;;;;;;6.30;5.30;;;;;;;13.09;81.81;99531.19;5072772;28;20215;-55
2022/05/03 09:02:53;;;;;;;7.33;5.67;;;;;;;13.13;81.93;99531.22;5072779;28;20206;-56
2022/05/03 09:05:21;;;;;;;6.40;5.63;;;;;;;13.15;82.11;99529.53;5072893;28;20317;-55
2022/05/03 09:07:49;;;;;;;7.67;5.90;;;;;;;13.14;81.89;99524.34;5078329;28;20196;-55
2022/05/03 09:10:19;;;;;;;6.63;6.03;;;;;;;13.07;82.11;99504.50;5092992;28;20333;-56
2022/05/03 09:12:46;;;;;;;7.07;6.37;;;;;;;13.33;81.37;99529.63;5092709;28;20203;-56
2022/05/03 09:15:14;;;;;;;6.60;6.00;;;;;;;13.22;81.05;99528.69;5093080;28;20202;-56
2022/05/03 09:17:43;;;;;;;6.47;5.80;;;;;;;13.23;81.34;99520.13;5092599;28;20245;-55
2022/05/03 09:25:51;;;;;;;7.13;5.83;;;;;;;13.34;80.25;99522.75;5092648;28;20195;-56
2022/05/03 09:28:21;;;;;;;7.63;6.87;;;;;;;13.51;79.08;99518.56;5092683;28;20203;-56
2022/05/03 09:30:50;;;;;;;5.50;5.03;;;;;;;13.43;77.85;99525.41;5090844;28;20206;-56
2022/05/03 09:33:23;;;;;;;7.18;6.10;;;;;;;13.39;76.95;99524.50;5090280;28;20951;-56
2022/05/03 09:35:52;;;;;;;6.23;5.63;;;;;;;13.40;76.62;99515.94;5085367;28;20230;-62
2022/05/03 09:38:19;;;;;;;5.33;4.83;;;;;;;13.09;76.54;99506.28;5093173;28;20277;-62
2022/05/03 09:40:47;;;;;;;4.90;4.37;;;;;;;13.17;76.21;99525.25;5092811;28;20227;-61
2022/05/03 09:43:16;;;;;;;5.87;5.40;;;;;;;13.01;76.54;99518.22;5092070;28;20696;-62
2022/05/03 09:45:43;;;;;;;5.50;5.00;;;;;;;13.30;75.76;99518.41;5089817;28;20208;-62
2022/05/03 09:48:10;;;;;;;6.67;5.93;;;;;;;13.39;76.17;99523.63;5072524;28;20609;-62
2022/05/03 09:50:41;;;;;;;6.07;5.47;;;;;;;13.54;76.81;99519.41;5072587;28;20260;-62
2022/05/03 09:53:10;;;;;;;6.17;5.33;;;;;;;13.49;74.80;99525.41;5093146;28;20209;-62
2022/05/03 09:55:39;;;;;;;5.73;5.23;;;;;;;13.50;74.14;99524.56;5093049;28;20705;-61
2022/05/03 09:58:08;;;;;;;5.20;4.80;;;;;;;13.64;73.28;99527.19;5076959;28;20582;-61
2022/05/03 10:00:36;;;;;;;6.03;5.43;;;;;;;13.64;73.75;99504.84;5096411;28;20272;-62
2022/05/03 10:03:05;;;;;;;7.17;6.47;;;;;;;13.69;72.14;99528.09;5078936;28;20191;-62
2022/05/03 10:05:32;;;;;;;7.70;7.00;;;;;;;13.63;73.55;99526.34;5076503;28;20585;-62
2022/05/03 10:08:00;;;;;;;7.97;6.00;;;;;;;13.67;72.84;99524.63;5074334;28;20203;-62
2022/05/03 10:10:28;;;;;;;5.10;4.70;;;;;;;13.86;73.90;99527.31;5091860;28;20240;-61
2022/05/03 10:12:55;;;;;;;5.37;4.87;;;;;;;13.43;72.89;99495.25;5091941;28;20191;-60
2022/05/03 10:21:02;;;;;;;4.87;4.30;;;;;;;13.61;71.26;99515.16;5092142;28;20214;-61
2022/05/03 10:23:32;;;;;;;5.17;4.77;;;;;;;13.74;72.18;99516.06;5091671;28;20549;-61
2022/05/03 10:26:00;;;;;;;5.77;4.93;;;;;;;13.85;71.68;99514.38;5091526;28;20187;-61
2022/05/03 10:29:05;;;;;;;5.57;5.07;;;;;;;14.12;71.45;99514.44;5091930;28;20187;-62
2022/05/03 10:31:32;;;;;;;4.70;4.30;;;;;;;14.20;71.90;99517.94;5091320;28;20655;-61
2022/05/03 10:34:02;;;;;;;7.80;5.07;;;;;;;14.33;70.61;99519.72;5091176;28;20184;-61
2022/05/03 10:36:45;;;;;;;5.30;4.80;;;;;;;14.45;70.65;99514.53;5091223;28;20611;-61
2022/05/03 10:39:31;;;;;;;4.03;3.73;;;;;;;14.66;70.76;99517.16;5091399;28;20190;-61
2022/05/03 10:42:00;;;;;;;4.90;4.50;;;;;;;14.66;71.07;99514.56;5091481;28;20307;-61
2022/05/03 10:44:56;;;;;;;4.93;4.50;;;;;;;14.67;68.12;99511.09;5070508;28;20315;-61
2022/05/03 10:47:42;;;;;;;5.40;4.30;;;;;;;14.75;68.61;99514.53;5071134;28;20210;-61
2022/05/03 10:50:23;;;;;;;4.93;4.47;;;;;;;15.09;69.92;99510.22;5070248;28;20192;-55
2022/05/03 10:53:19;;;;;;;4.72;4.15;;;;;;;14.99;65.46;99511.09;5070081;28;20438;-56
2022/05/03 10:56:17;;;;;;;4.70;4.20;;;;;;;15.09;65.54;99509.34;5070866;28;20202;-56
2022/05/03 10:58:46;;;;;;;4.47;4.17;;;;;;;15.12;64.69;99504.16;5082106;28;20577;-62
2022/05/03 11:01:17;;;;;;;6.13;5.17;;;;;;;15.44;67.07;99507.53;5090609;28;20223;-62
2022/05/03 11:04:08;;;;;;;5.07;4.63;;;;;;;15.44;67.21;99499.75;5087859;28;20201;-61
2022/05/03 11:06:42;;;;;;;6.97;6.20;;;;;;;15.84;67.09;99498.78;5090305;28;20184;-62
2022/05/03 11:09:10;;;;;;;6.90;5.37;;;;;;;16.02;66.04;99492.63;5090368;28;20533;-62
2022/05/03 11:12:01;;;;;;;5.80;5.23;;;;;;;16.22;65.54;99489.91;5090145;28;20195;-62
2022/05/03 11:14:51;;;;;;;6.20;5.60;;;;;;;16.37;64.52;99489.81;5090378;28;20203;-62
2022/05/03 11:17:19;;;;;;;5.27;4.77;;;;;;;16.39;61.91;99493.25;5089843;28;20235;-61
2022/05/03 11:19:50;;;;;;;4.93;4.37;;;;;;;16.46;60.47;99489.72;5090345;28;20264;-61
2022/05/03 11:22:19;;;;;;;6.03;5.53;;;;;;;16.50;63.19;99481.06;5090615;28;20279;-61
2022/05/03 11:24:47;;;;;;;5.50;5.00;;;;;;;16.36;61.34;99475.13;5090473;28;20685;-61
2022/05/03 11:27:17;;;;;;;5.60;5.10;;;;;;;16.37;61.27;99474.25;5090525;28;20264;-62
2022/05/03 11:29:45;;;;;;;6.40;5.50;;;;;;;16.23;62.15;99451.03;5090674;28;20201;-62
2022/05/03 11:32:13;;;;;;;6.30;5.33;;;;;;;16.56;60.84;99472.41;5090499;28;20690;-62
2022/05/03 11:34:40;;;;;;;6.60;5.17;;;;;;;16.69;61.67;99469.72;5090338;28;20201;-62
2022/05/03 11:37:08;;;;;;;5.47;4.57;;;;;;;16.89;60.14;99478.16;5090397;28;20703;-62
2022/05/03 11:39:36;;;;;;;4.97;3.67;;;;;;;16.81;56.99;99476.53;5090593;28;20288;-62
2022/05/03 11:42:05;;;;;;;6.13;3.67;;;;;;;16.86;57.29;99478.22;5090408;28;20260;-62
2022/05/03 11:44:33;;;;;;;4.23;3.83;;;;;;;16.86;57.52;99478.22;5090385;28;20660;-63
2022/05/03 11:47:03;;;;;;;3.37;3.03;;;;;;;16.75;55.27;99472.25;5090250;28;20549;-62
2022/05/03 11:49:32;;;;;;;3.00;2.70;;;;;;;16.80;54.00;99472.19;5090327;28;20202;-62
2022/05/03 11:57:33;;;;;;;3.63;3.33;;;;;;;17.03;56.30;99463.31;5097153;28;20200;-56
2022/05/03 12:00:03;;;;;;;4.40;3.33;;;;;;;17.17;56.55;99457.97;5069805;28;20683;-56
2022/05/03 12:02:34;;;;;;;4.20;3.90;;;;;;;17.19;57.21;99466.63;5069756;28;20207;-57
2022/05/03 12:05:17;;;;;;;7.90;4.20;;;;;;;17.44;56.28;99467.19;5069992;28;20199;-57
2022/05/03 12:07:47;;;;;;;4.03;3.50;;;;;;;17.62;54.82;99459.22;5067936;28;20205;-55
2022/05/03 12:10:22;;;;;;;5.03;3.23;;;;;;;17.63;53.78;99461.78;5069902;28;20252;-55
2022/05/03 12:13:06;;;;;;;3.70;3.40;;;;;;;17.54;52.87;99458.44;5069689;28;20194;-56
2022/05/03 12:15:36;;;;;;;4.13;3.37;;;;;;;17.66;52.63;99455.69;5086963;28;20260;-56
2022/05/03 12:18:09;;;;;;;4.80;3.90;;;;;;;17.73;51.61;99459.94;5090024;28;20788;-56
2022/05/03 12:20:46;;;;;;;5.60;3.70;;;;;;;17.60;50.30;99459.25;5089913;28;20225;-56
2022/05/03 12:23:17;;;;;;;3.27;2.97;;;;;;;17.41;51.42;99433.47;5069412;28;20203;-56
2022/05/03 12:25:45;;;;;;;3.33;3.03;;;;;;;17.75;51.84;99458.16;5069852;28;20202;-56
2022/05/03 12:28:12;;;;;;;3.77;3.47;;;;;;;17.69;52.65;99450.44;5069761;28;20196;-56
2022/05/03 12:30:41;;;;;;;3.27;3.03;;;;;;;17.79;50.70;99457.25;5069695;28;20195;-56
2022/05/03 12:33:13;;;;;;;4.00;3.53;;;;;;;17.64;51.49;99454.84;5069262;28;20203;-56
2022/05/03 12:35:43;;;;;;;3.70;3.40;;;;;;;17.57;52.56;99453.22;5076123;28;20219;-55
2022/05/03 12:38:13;;;;;;;3.90;3.50;;;;;;;17.55;51.34;99455.81;5090279;28;20989;-56
2022/05/03 12:40:46;;;;;;;3.87;3.57;;;;;;;17.24;53.66;99462.22;5089286;28;20222;-56
2022/05/03 12:43:14;;;;;;;3.57;3.27;;;;;;;17.00;55.32;99457.31;5087952;28;20202;-56
2022/05/03 12:45:43;;;;;;;8.77;3.87;;;;;;;16.94;56.80;99466.00;5088492;28;20187;-57
2022/05/03 12:48:10;;;;;;;4.47;4.03;;;;;;;16.95;56.20;99459.94;5069066;28;20550;-56
2022/05/03 12:50:38;;;;;;;4.80;4.33;;;;;;;16.79;56.89;99458.34;5069783;28;20192;-55
2022/05/03 12:53:05;;;;;;;5.03;4.53;;;;;;;16.67;58.48;99462.81;5081723;28;20199;-56
2022/05/03 12:55:32;;;;;;;4.50;4.10;;;;;;;16.41;57.67;99458.66;5087661;28;20187;-56
2022/05/03 13:00:44;;;;;;;3.70;3.40;;;;;;;15.97;55.60;99459.84;5088827;28;20356;-56
2022/05/03 13:03:11;;;;;;;4.93;4.43;;;;;;;15.88;56.57;99458.16;5088936;28;20187;-56
2022/05/03 13:05:41;;;;;;;5.20;4.40;;;;;;;15.69;57.81;99456.53;5088886;28;20206;-56
2022/05/03 13:08:08;;;;;;;5.70;3.77;;;;;;;15.58;57.70;99458.31;5089497;28;20199;-56
2022/05/03 13:10:35;;;;;;;9.60;4.57;;;;;;;15.59;59.28;99460.03;5089822;28;20197;-56
2022/05/03 13:13:04;;;;;;;4.50;4.10;;;;;;;15.20;57.64;99463.59;5089992;28;20195;-55
2022/05/03 13:15:31;;;;;;;6.20;3.90;;;;;;;14.95;60.43;99469.69;5093092;28;20191;-56
2022/05/03 13:18:00;;;;;;;8.30;3.50;;;;;;;14.92;64.80;99470.56;5093372;28;20201;-56
2022/05/03 13:20:26;;;;;;;6.57;4.40;;;;;;;14.66;68.10;99475.78;5093026;28;20645;-56
2022/05/03 13:22:53;;;;;;;6.07;3.90;;;;;;;14.58;69.35;99469.75;5093057;28;20258;-56
2022/05/03 13:25:20;;;;;;;5.60;3.53;;;;;;;14.43;70.11;99472.31;5093170;28;20212;-55
2022/05/03 13:27:47;;;;;;;4.97;4.40;;;;;;;14.31;72.05;99477.44;5093046;28;20686;-56
2022/05/03 13:30:15;;;;;;;4.50;4.10;;;;;;;14.10;72.45;99470.53;5092970;28;20636;-56
2022/05/03 13:32:42;;;;;;;6.53;4.60;;;;;;;14.13;73.26;99480.00;5092947;28;20251;-56
2022/05/03 13:35:11;;;;;;;4.30;3.70;;;;;;;14.09;72.81;99476.53;5092706;28;20214;-57
2022/05/03 13:40:33;;;;;;;4.13;3.73;;;;;;;14.22;73.24;99485.19;5092702;28;20186;-57
2022/05/03 13:43:01;;;;;;;6.87;3.80;;;;;;;14.11;72.59;99487.78;5092770;28;20196;-57
2022/05/03 13:45:29;;;;;;;4.13;3.60;;;;;;;14.03;71.68;99484.31;5092893;28;20203;-57
2022/05/03 13:47:56;;;;;;;3.80;3.50;;;;;;;13.88;72.46;99485.97;5092599;28;20235;-57
2022/05/03 13:50:24;;;;;;;3.67;3.20;;;;;;;13.88;73.24;99485.97;5092574;28;20208;-57
2022/05/03 13:52:52;;;;;;;3.60;3.30;;;;;;;13.97;72.83;99493.75;5092477;28;20191;-57
2022/05/03 13:55:18;;;;;;;4.10;3.70;;;;;;;13.88;72.60;99475.63;5092249;28;20195;-57
2022/05/03 13:57:45;;;;;;;4.53;3.93;;;;;;;13.99;72.66;99487.72;5092463;28;20194;-57
2022/05/03 14:00:13;;;;;;;4.57;4.03;;;;;;;14.01;72.74;99498.91;5091446;28;20447;-57
2022/05/03 14:02:43;;;;;;;4.27;3.77;;;;;;;14.13;72.87;99492.94;5092472;28;20257;-56
2022/05/03 14:05:10;;;;;;;4.63;4.23;;;;;;;14.05;73.13;99489.47;5092119;28;20203;-56
2022/05/03 14:07:41;;;;;;;3.67;3.37;;;;;;;14.00;74.04;99486.88;5076460;28;20210;-57
2022/05/03 14:10:08;;;;;;;4.43;4.03;;;;;;;14.08;73.42;99492.06;5071838;28;20596;-57
2022/05/03 14:12:36;;;;;;;7.00;3.70;;;;;;;14.16;73.10;99495.50;5071795;28;20236;-57
2022/05/03 14:15:04;;;;;;;3.90;3.30;;;;;;;14.18;73.20;99501.53;5071716;28;20351;-57
2022/05/03 14:17:31;;;;;;;4.90;3.93;;;;;;;14.26;72.40;99502.41;5071371;28;20280;-57
2022/05/03 14:19:57;;;;;;;3.63;3.27;;;;;;;14.23;71.23;99501.56;5111856;28;20217;-57
2022/05/03 14:22:25;;;;;;;4.30;3.90;;;;;;;14.26;71.55;99507.59;5112451;28;20244;-62
2022/05/03 14:24:53;;;;;;;5.27;4.33;;;;;;;14.23;71.38;99506.75;5111769;28;20202;-56
2022/05/03 14:27:20;;;;;;;7.90;4.33;;;;;;;14.26;71.51;99502.41;5112229;28;20214;-57
2022/05/03 14:29:47;;;;;;;4.60;3.63;;;;;;;14.35;71.37;99511.94;5111858;28;20200;-57
2022/05/03 14:32:14;;;;;;;4.43;3.73;;;;;;;14.04;71.56;99482.56;5111405;28;20256;-56
2022/05/03 14:34:42;;;;;;;4.93;4.10;;;;;;;14.28;71.89;99511.06;5111706;28;20190;-57
2022/05/03 14:37:09;;;;;;;6.03;4.70;;;;;;;14.42;71.84;99508.53;5111854;28;20196;-57
2022/05/03 14:39:36;;;;;;;4.97;4.57;;;;;;;14.55;71.74;99503.34;5111022;28;20640;-56
2022/05/03 14:42:05;;;;;;;4.10;3.63;;;;;;;14.52;70.84;99505.94;5111894;28;20232;-57
2022/05/03 14:44:32;;;;;;;4.57;4.13;;;;;;;14.63;71.09;99504.22;5111524;28;20207;-57
2022/05/03 14:46:59;;;;;;;10.73;6.90;;;;;;;14.79;71.30;99515.41;5092306;28;20202;-57
2022/05/03 14:49:26;;;;;;;6.77;5.03;;;;;;;14.75;70.95;99506.78;5088310;28;20199;-57
2022/05/03 14:51:53;;;;;;;6.83;6.20;;;;;;;14.80;70.62;99503.34;5091266;28;20696;-57
2022/05/03 14:54:20;;;;;;;14.02;9.75;;;;;;;14.94;69.96;99505.06;5090830;28;20475;-56
2022/05/03 15:05:01;;;;;;;5.97;4.80;;;;;;;15.15;68.80;99494.69;5091176;28;20194;-56
2022/05/03 15:07:28;;;;;;;5.00;4.50;;;;;;;15.17;68.65;99481.72;5091226;28;20290;-56
2022/05/03 15:09:55;;;;;;;4.55;4.25;;;;;;;15.20;68.44;99484.31;5090415;28;20442;-56
2022/05/03 15:12:22;;;;;;;6.67;5.90;;;;;;;15.06;67.60;99488.66;5091073;28;20248;-56
2022/05/03 15:14:50;;;;;;;6.77;6.13;;;;;;;15.03;67.99;99491.22;5090973;28;20250;-56
2022/05/03 15:17:19;;;;;;;7.37;5.90;;;;;;;15.06;68.34;99488.66;5090516;28;20245;-54
2022/05/03 15:19:46;;;;;;;5.67;5.17;;;;;;;15.12;69.64;99483.47;5090547;28;20201;-55
2022/05/03 15:22:13;;;;;;;4.90;4.40;;;;;;;15.20;68.59;99473.94;5090653;28;20218;-55
2022/05/03 15:24:39;;;;;;;6.13;4.97;;;;;;;15.27;68.41;99479.09;5090789;28;20205;-56
2022/05/03 15:27:09;;;;;;;9.10;4.75;;;;;;;15.37;67.83;99485.13;5089706;28;20493;-55
2022/05/03 15:29:38;;;;;;;5.63;5.17;;;;;;;15.47;67.78;99476.47;5090573;28;20518;-56
2022/05/03 15:32:28;;;;;;;5.88;5.03;;;;;;;15.52;68.11;99485.09;5090275;28;20757;-57
2022/05/03 15:34:56;;;;;;;8.20;6.53;;;;;;;15.55;67.25;99474.72;5090098;28;20218;-57
2022/05/03 15:37:24;;;;;;;6.07;4.90;;;;;;;15.55;67.08;99474.72;5088515;28;20633;-55
2022/05/03 15:39:53;;;;;;;5.33;4.70;;;;;;;15.53;67.15;99475.59;5090323;28;20302;-57
2022/05/03 15:42:21;;;;;;;4.80;4.50;;;;;;;15.51;66.45;99474.75;5090160;28;20280;-56
2022/05/03 15:44:51;;;;;;;5.20;4.80;;;;;;;15.46;66.95;99482.53;5090407;28;20208;-56
2022/05/03 15:47:21;;;;;;;6.13;5.30;;;;;;;15.45;67.22;99474.72;5090878;28;20281;-57
2022/05/03 15:49:49;;;;;;;5.87;5.37;;;;;;;15.38;67.00;99474.75;5090358;28;20553;-58
2022/05/03 15:52:16;;;;;;;9.80;8.37;;;;;;;15.40;67.26;99477.34;5089888;28;20191;-56
2022/05/03 15:54:43;;;;;;;11.60;9.80;;;;;;;15.33;67.58;99479.09;5089316;28;20249;-56
2022/05/03 15:57:10;;;;;;;8.93;7.67;;;;;;;15.18;66.46;99475.69;5086740;28;20208;-55
2022/05/03 15:59:38;;;;;;;12.40;7.67;;;;;;;15.23;66.76;99484.28;5087074;28;20190;-56
2022/05/03 16:02:06;;;;;;;10.37;8.37;;;;;;;15.21;66.92;99475.69;5089343;28;20588;-56
2022/05/03 16:04:33;;;;;;;7.90;6.93;;;;;;;15.20;67.18;99477.41;5089674;28;20225;-55
2022/05/03 16:07:03;;;;;;;11.80;8.87;;;;;;;15.03;67.45;99475.72;5089766;28;20197;-56
2022/05/03 16:09:30;;;;;;;13.37;7.30;;;;;;;15.04;67.05;99474.84;5089450;28;20188;-56
2022/05/03 16:11:58;;;;;;;8.03;6.47;;;;;;;14.96;66.70;99467.13;5086682;28;20198;-61
2022/05/03 16:14:25;;;;;;;12.67;10.50;;;;;;;14.94;66.59;99475.75;5089738;28;20194;-62
2022/05/03 16:16:52;;;;;;;7.90;6.57;;;;;;;14.56;66.93;99419.75;5089627;28;20224;-61
2022/05/03 16:19:20;;;;;;;8.27;5.83;;;;;;;14.89;67.01;99480.06;5089826;28;20711;-61
2022/05/03 16:21:47;;;;;;;7.43;5.87;;;;;;;14.81;67.83;99476.59;5089570;28;20216;-61
2022/05/03 16:24:16;;;;;;;10.83;9.00;;;;;;;14.82;68.08;99478.34;5090044;28;20281;-61
2022/05/03 16:26:47;;;;;;;8.03;7.23;;;;;;;14.73;68.14;99482.66;5090364;28;20206;-61
2022/05/03 16:29:14;;;;;;;9.97;8.60;;;;;;;14.75;67.92;99477.47;5089962;28;20511;-62
2022/05/03 16:31:41;;;;;;;8.33;7.43;;;;;;;14.77;68.09;99491.28;5089572;28;20194;-62
2022/05/03 16:34:08;;;;;;;12.10;9.27;;;;;;;14.71;68.22;99494.72;5090057;28;20192;-62
2022/05/03 16:42:09;;;;;;;9.73;8.23;;;;;;;14.60;69.37;99490.41;5088454;28;20436;-62
2022/05/03 16:44:36;;;;;;;13.13;9.67;;;;;;;14.52;68.91;99490.44;5089536;28;20289;-62
2022/05/03 16:47:04;;;;;;;9.33;8.33;;;;;;;14.59;68.61;99494.72;5090504;28;20293;-62
2022/05/03 16:49:31;;;;;;;10.57;7.47;;;;;;;14.45;69.02;99493.00;5093893;28;20198;-62
2022/05/03 16:51:58;;;;;;;11.60;10.40;;;;;;;14.48;69.29;99493.84;5093737;28;20181;-61
2022/05/03 16:54:26;;;;;;;13.47;12.07;;;;;;;14.52;70.00;99500.78;5093497;28;20204;-61
2022/05/03 16:56:53;;;;;;;9.80;8.10;;;;;;;14.54;69.20;99498.16;5093151;28;20205;-62
2022/05/03 16:59:20;;;;;;;9.50;7.90;;;;;;;14.28;68.46;99505.88;5093434;28;20202;-61
2022/05/03 17:01:48;;;;;;;8.73;6.83;;;;;;;14.33;68.53;99506.78;5093347;28;20281;-61
2022/05/03 17:04:15;;;;;;;6.90;6.30;;;;;;;14.23;68.69;99505.00;5093016;28;20599;-62
2022/05/03 17:06:43;;;;;;;15.03;10.03;;;;;;;14.31;69.42;99516.19;5093039;28;20217;-62
2022/05/03 17:09:11;;;;;;;6.53;5.77;;;;;;;14.36;68.74;99506.78;5075893;28;20260;-62
2022/05/03 17:11:40;;;;;;;10.07;8.90;;;;;;;14.36;69.02;99509.38;5072956;28;20196;-62
2022/05/03 17:14:08;;;;;;;10.17;7.17;;;;;;;14.34;68.68;99505.91;5073044;28;20663;-62
2022/05/03 17:16:35;;;;;;;12.10;7.47;;;;;;;14.27;68.59;99519.66;5072775;28;20245;-61
2022/05/03 17:19:02;;;;;;;12.93;11.33;;;;;;;14.25;68.42;99516.22;5072805;28;20204;-62
2022/05/03 17:21:29;;;;;;;10.80;8.93;;;;;;;14.26;68.37;99512.75;5073185;28;20195;-61
2022/05/03 17:23:56;;;;;;;8.23;5.63;;;;;;;14.28;68.23;99518.81;5072787;28;20223;-61
2022/05/03 17:26:24;;;;;;;9.52;5.82;;;;;;;14.16;68.16;99513.59;5072822;28;20847;-61
2022/05/03 17:28:53;;;;;;;7.20;5.50;;;;;;;14.16;67.24;99514.47;5073842;28;20223;-62
2022/05/03 17:31:20;;;;;;;13.93;8.13;;;;;;;14.18;67.01;99524.78;5092374;28;20285;-62
2022/05/03 17:33:47;;;;;;;6.13;4.70;;;;;;;14.06;66.85;99523.03;5092605;28;20188;-60
2022/05/03 17:36:15;;;;;;;8.57;6.10;;;;;;;14.02;67.86;99534.25;5072840;28;20201;-62
2022/05/03 17:38:42;;;;;;;7.10;5.27;;;;;;;14.04;68.16;99521.31;5072396;28;20225;-62
2022/05/03 17:41:10;;;;;;;13.40;10.17;;;;;;;13.96;69.00;99528.19;5072269;28;20206;-62
2022/05/03 17:43:37;;;;;;;13.97;9.07;;;;;;;14.01;69.25;99529.91;5072392;28;20226;-62
2022/05/03 17:46:06;;;;;;;7.83;6.93;;;;;;;14.04;69.18;99523.91;5072553;28;20257;-62
2022/05/03 17:48:33;;;;;;;8.65;7.78;;;;;;;13.96;69.63;99531.63;5071935;28;20438;-61
2022/05/03 17:51:00;;;;;;;8.33;7.53;;;;;;;13.92;70.57;99534.22;5072316;28;20209;-61
2022/05/03 17:56:11;;;;;;;12.70;11.40;;;;;;;13.88;71.37;99535.03;5072466;28;20719;-61
2022/05/03 17:58:38;;;;;;;17.00;14.33;;;;;;;13.82;71.54;99540.19;5071564;28;20227;-62
2022/05/03 18:01:06;;;;;;;32.60;20.57;;;;;;;13.75;72.08;99544.47;5072251;28;20238;-62
2022/05/03 18:03:33;;;;;;;40.57;36.17;;;;;;;13.54;73.88;99544.38;5072003;28;20232;-63
2022/05/03 18:06:01;;;;;;;51.67;44.57;;;;;;;13.58;74.84;99548.69;5071914;28;20208;-62
2022/05/03 18:08:29;;;;;;;49.97;42.00;;;;;;;13.58;75.04;99549.56;5071904;28;20260;-62
2022/05/03 18:10:56;;;;;;;39.93;35.33;;;;;;;13.56;75.34;99546.13;5072061;28;20311;-62
2022/05/03 18:13:23;;;;;;;43.30;36.90;;;;;;;13.46;76.65;99546.91;5071718;28;20191;-63
2022/05/03 18:15:49;;;;;;;33.47;28.00;;;;;;;13.49;76.40;99559.81;5083174;28;20230;-62
2022/05/03 18:18:18;;;;;;;29.73;26.63;;;;;;;13.49;76.40;99553.78;5089408;28;20187;-62
2022/05/03 18:20:46;;;;;;;32.57;27.77;;;;;;;13.52;76.44;99557.25;5091340;28;20249;-62
2022/05/03 18:23:13;;;;;;;33.87;28.57;;;;;;;13.57;76.23;99552.97;5091373;28;20289;-61
2022/05/03 18:25:40;;;;;;;29.53;25.97;;;;;;;13.59;75.85;99553.88;5087598;28;20211;-61
2022/05/03 18:28:08;;;;;;;34.13;25.73;;;;;;;13.62;76.10;99555.63;5085764;28;20195;-61
2022/05/03 18:30:35;;;;;;;16.43;14.37;;;;;;;13.67;76.00;99565.94;5087347;28;20668;-62
2022/05/03 18:33:03;;;;;;;17.80;15.13;;;;;;;13.63;76.26;99557.31;5092018;28;20191;-61
2022/05/03 18:35:32;;;;;;;13.67;12.40;;;;;;;13.71;76.06;99563.38;5092055;28;20195;-61
2022/05/03 18:37:59;;;;;;;13.03;11.83;;;;;;;13.71;75.79;99568.53;5092342;28;20931;-62
2022/05/03 18:40:27;;;;;;;14.93;13.32;;;;;;;13.80;75.47;99565.16;5091009;28;20521;-62
2022/05/03 18:42:54;;;;;;;14.77;12.03;;;;;;;13.83;74.92;99563.44;5092006;28;20248;-62
2022/05/03 18:45:21;;;;;;;12.50;11.30;;;;;;;13.86;74.65;99566.03;5091865;28;20222;-63
2022/05/03 18:47:48;;;;;;;13.37;11.23;;;;;;;13.84;75.13;99572.06;5091792;28;20199;-62